sensor_id;sensor_type;location;lat;lon;timestamp;pressure;altitude;pressure_sealevel;temperature
15062;BMP180;7630;50.306;8.566;2022-10-16T00:02:27;97544.00;;;17.10
15062;BMP180;7630;50.306;8.566;2022-10-16T00:06:29;97550.00;;;17.10
15062;BMP180;7630;50.306;8.566;2022-10-16T00:10:30;97552.00;;;17.10
15062;BMP180;7630;50.306;8.566;2022-10-16T00:14:31;97556.00;;;17.40
15062;BMP180;7630;50.306;8.566;2022-10-16T00:18:33;97545.00;;;17.50
15062;BMP180;7630;50.306;8.566;2022-10-16T00:22:34;97544.00;;;17.60
15062;BMP180;7630;50.306;8.566;2022-10-16T00:26:36;97552.00;;;17.50
15062;BMP180;7630;50.306;8.566;2022-10-16T00:30:38;97551.00;;;17.20
15062;BMP180;7630;50.306;8.566;2022-10-16T00:34:39;97553.00;;;17.50
15062;BMP180;7630;50.306;8.566;2022-10-16T00:38:41;97549.00;;;17.60
15062;BMP180;7630;50.306;8.566;2022-10-16T00:42:42;97544.00;;;17.50
15062;BMP180;7630;50.306;8.566;2022-10-16T00:46:43;97545.00;;;17.60
15062;BMP180;7630;50.306;8.566;2022-10-16T00:50:44;97573.00;;;17.30
15062;BMP180;7630;50.306;8.566;2022-10-16T00:54:47;97546.00;;;17.80
15062;BMP180;7630;50.306;8.566;2022-10-16T00:58:49;97562.00;;;17.90
15062;BMP180;7630;50.306;8.566;2022-10-16T01:02:58;97554.00;;;18.00
15062;BMP180;7630;50.306;8.566;2022-10-16T01:07:11;97571.00;;;17.90
15062;BMP180;7630;50.306;8.566;2022-10-16T01:11:22;97582.00;;;17.90
15062;BMP180;7630;50.306;8.566;2022-10-16T01:15:52;97571.00;;;17.50
15062;BMP180;7630;50.306;8.566;2022-10-16T01:20:07;97576.00;;;17.70
15062;BMP180;7630;50.306;8.566;2022-10-16T01:24:27;97579.00;;;17.80
15062;BMP180;7630;50.306;8.566;2022-10-16T01:28:40;97584.00;;;17.90
15062;BMP180;7630;50.306;8.566;2022-10-16T01:32:57;97567.00;;;18.20
15062;BMP180;7630;50.306;8.566;2022-10-16T01:37:12;97567.00;;;18.20
15062;BMP180;7630;50.306;8.566;2022-10-16T01:41:13;97560.00;;;17.80
15062;BMP180;7630;50.306;8.566;2022-10-16T01:45:15;97593.00;;;17.90
15062;BMP180;7630;50.306;8.566;2022-10-16T01:49:20;97584.00;;;18.10
15062;BMP180;7630;50.306;8.566;2022-10-16T01:53:23;97577.00;;;18.50
15062;BMP180;7630;50.306;8.566;2022-10-16T01:57:25;97567.00;;;17.80
15062;BMP180;7630;50.306;8.566;2022-10-16T02:01:30;97573.00;;;17.90
15062;BMP180;7630;50.306;8.566;2022-10-16T02:05:37;97580.00;;;17.70
15062;BMP180;7630;50.306;8.566;2022-10-16T02:09:37;97587.00;;;17.90
15062;BMP180;7630;50.306;8.566;2022-10-16T02:13:45;97593.00;;;17.70
15062;BMP180;7630;50.306;8.566;2022-10-16T02:17:46;97598.00;;;17.80
15062;BMP180;7630;50.306;8.566;2022-10-16T02:25:57;97595.00;;;17.30
15062;BMP180;7630;50.306;8.566;2022-10-16T02:30:03;97594.00;;;17.20
15062;BMP180;7630;50.306;8.566;2022-10-16T02:34:06;97588.00;;;17.00
15062;BMP180;7630;50.306;8.566;2022-10-16T02:38:09;97591.00;;;17.00
15062;BMP180;7630;50.306;8.566;2022-10-16T02:42:12;97587.00;;;16.90
15062;BMP180;7630;50.306;8.566;2022-10-16T02:46:13;97587.00;;;17.30
15062;BMP180;7630;50.306;8.566;2022-10-16T02:50:15;97589.00;;;17.20
15062;BMP180;7630;50.306;8.566;2022-10-16T02:54:16;97604.00;;;16.90
15062;BMP180;7630;50.306;8.566;2022-10-16T02:58:17;97613.00;;;17.10
15062;BMP180;7630;50.306;8.566;2022-10-16T03:02:18;97609.00;;;17.70
15062;BMP180;7630;50.306;8.566;2022-10-16T03:06:20;97620.00;;;17.50
15062;BMP180;7630;50.306;8.566;2022-10-16T03:10:21;97636.00;;;18.10
15062;BMP180;7630;50.306;8.566;2022-10-16T03:14:22;97654.00;;;18.10
15062;BMP180;7630;50.306;8.566;2022-10-16T03:18:23;97645.00;;;18.00
15062;BMP180;7630;50.306;8.566;2022-10-16T03:22:24;97639.00;;;18.50
15062;BMP180;7630;50.306;8.566;2022-10-16T03:26:25;97642.00;;;17.20
15062;BMP180;7630;50.306;8.566;2022-10-16T03:30:26;97636.00;;;17.30
15062;BMP180;7630;50.306;8.566;2022-10-16T03:34:27;97630.00;;;17.40
15062;BMP180;7630;50.306;8.566;2022-10-16T03:38:28;97624.00;;;17.90
15062;BMP180;7630;50.306;8.566;2022-10-16T03:42:29;97630.00;;;16.80
15062;BMP180;7630;50.306;8.566;2022-10-16T03:46:30;97634.00;;;16.90
15062;BMP180;7630;50.306;8.566;2022-10-16T03:50:31;97618.00;;;17.60
15062;BMP180;7630;50.306;8.566;2022-10-16T03:54:32;97620.00;;;17.90
15062;BMP180;7630;50.306;8.566;2022-10-16T03:58:33;97628.00;;;17.80
15062;BMP180;7630;50.306;8.566;2022-10-16T04:02:34;97631.00;;;18.00
15062;BMP180;7630;50.306;8.566;2022-10-16T04:06:35;97639.00;;;18.00
15062;BMP180;7630;50.306;8.566;2022-10-16T04:10:36;97625.00;;;17.90
15062;BMP180;7630;50.306;8.566;2022-10-16T04:14:37;97636.00;;;17.30
15062;BMP180;7630;50.306;8.566;2022-10-16T04:18:38;97631.00;;;17.00
15062;BMP180;7630;50.306;8.566;2022-10-16T04:22:39;97636.00;;;16.60
15062;BMP180;7630;50.306;8.566;2022-10-16T04:26:40;97645.00;;;17.10
15062;BMP180;7630;50.306;8.566;2022-10-16T04:30:41;97662.00;;;18.00
15062;BMP180;7630;50.306;8.566;2022-10-16T04:34:42;97664.00;;;17.70
15062;BMP180;7630;50.306;8.566;2022-10-16T04:38:43;97673.00;;;17.70
15062;BMP180;7630;50.306;8.566;2022-10-16T04:42:44;97673.00;;;18.10
15062;BMP180;7630;50.306;8.566;2022-10-16T04:46:45;97668.00;;;18.20
15062;BMP180;7630;50.306;8.566;2022-10-16T04:50:46;97669.00;;;17.60
15062;BMP180;7630;50.306;8.566;2022-10-16T04:54:49;97654.00;;;17.60
15062;BMP180;7630;50.306;8.566;2022-10-16T04:58:51;97663.00;;;17.40
15062;BMP180;7630;50.306;8.566;2022-10-16T05:02:52;97671.00;;;17.60
15062;BMP180;7630;50.306;8.566;2022-10-16T05:06:53;97664.00;;;18.00
15062;BMP180;7630;50.306;8.566;2022-10-16T05:10:54;97674.00;;;18.00
15062;BMP180;7630;50.306;8.566;2022-10-16T05:14:55;97665.00;;;17.70
15062;BMP180;7630;50.306;8.566;2022-10-16T05:18:58;97673.00;;;17.80
15062;BMP180;7630;50.306;8.566;2022-10-16T05:23:01;97674.00;;;17.90
15062;BMP180;7630;50.306;8.566;2022-10-16T05:27:02;97683.00;;;18.00
15062;BMP180;7630;50.306;8.566;2022-10-16T05:31:09;97666.00;;;18.30
15062;BMP180;7630;50.306;8.566;2022-10-16T05:35:10;97674.00;;;17.00
15062;BMP180;7630;50.306;8.566;2022-10-16T05:39:14;97676.00;;;16.90
15062;BMP180;7630;50.306;8.566;2022-10-16T05:43:15;97678.00;;;17.50
15062;BMP180;7630;50.306;8.566;2022-10-16T05:47:17;97664.00;;;17.50
15062;BMP180;7630;50.306;8.566;2022-10-16T05:51:18;97675.00;;;17.80
15062;BMP180;7630;50.306;8.566;2022-10-16T05:55:19;97684.00;;;17.90
15062;BMP180;7630;50.306;8.566;2022-10-16T05:59:20;97678.00;;;18.30
15062;BMP180;7630;50.306;8.566;2022-10-16T06:03:21;97693.00;;;18.20
15062;BMP180;7630;50.306;8.566;2022-10-16T06:07:22;97704.00;;;18.00
15062;BMP180;7630;50.306;8.566;2022-10-16T06:11:27;97707.00;;;18.00
15062;BMP180;7630;50.306;8.566;2022-10-16T06:15:29;97714.00;;;18.00
15062;BMP180;7630;50.306;8.566;2022-10-16T06:19:29;97703.00;;;18.00
15062;BMP180;7630;50.306;8.566;2022-10-16T06:23:32;97713.00;;;18.00
15062;BMP180;7630;50.306;8.566;2022-10-16T06:27:33;97716.00;;;18.00
15062;BMP180;7630;50.306;8.566;2022-10-16T06:31:34;97721.00;;;18.20
15062;BMP180;7630;50.306;8.566;2022-10-16T06:35:35;97725.00;;;18.40
15062;BMP180;7630;50.306;8.566;2022-10-16T06:39:36;97732.00;;;18.10
15062;BMP180;7630;50.306;8.566;2022-10-16T06:43:37;97731.00;;;18.20
15062;BMP180;7630;50.306;8.566;2022-10-16T06:47:38;97728.00;;;17.30
15062;BMP180;7630;50.306;8.566;2022-10-16T06:51:39;97728.00;;;17.80
15062;BMP180;7630;50.306;8.566;2022-10-16T06:55:44;97741.00;;;18.60
15062;BMP180;7630;50.306;8.566;2022-10-16T06:59:45;97730.00;;;17.60
15062;BMP180;7630;50.306;8.566;2022-10-16T07:03:47;97745.00;;;18.30
15062;BMP180;7630;50.306;8.566;2022-10-16T07:07:48;97753.00;;;18.80
15062;BMP180;7630;50.306;8.566;2022-10-16T07:11:50;97761.00;;;19.00
15062;BMP180;7630;50.306;8.566;2022-10-16T07:15:51;97778.00;;;19.30
15062;BMP180;7630;50.306;8.566;2022-10-16T07:19:52;97788.00;;;19.00
15062;BMP180;7630;50.306;8.566;2022-10-16T07:24:00;97780.00;;;18.70
15062;BMP180;7630;50.306;8.566;2022-10-16T07:28:02;97788.00;;;18.40
15062;BMP180;7630;50.306;8.566;2022-10-16T07:32:03;97807.00;;;18.90
15062;BMP180;7630;50.306;8.566;2022-10-16T07:36:05;97806.00;;;18.70
15062;BMP180;7630;50.306;8.566;2022-10-16T07:40:07;97822.00;;;18.90
15062;BMP180;7630;50.306;8.566;2022-10-16T07:44:08;97813.00;;;19.10
15062;BMP180;7630;50.306;8.566;2022-10-16T07:48:09;97836.00;;;19.60
15062;BMP180;7630;50.306;8.566;2022-10-16T07:52:11;97838.00;;;19.40
15062;BMP180;7630;50.306;8.566;2022-10-16T07:56:13;97854.00;;;19.70
15062;BMP180;7630;50.306;8.566;2022-10-16T08:00:14;97855.00;;;19.50
15062;BMP180;7630;50.306;8.566;2022-10-16T08:04:15;97865.00;;;19.30
15062;BMP180;7630;50.306;8.566;2022-10-16T08:08:18;97866.00;;;19.50
15062;BMP180;7630;50.306;8.566;2022-10-16T08:12:19;97879.00;;;19.10
15062;BMP180;7630;50.306;8.566;2022-10-16T08:16:21;97869.00;;;18.10
15062;BMP180;7630;50.306;8.566;2022-10-16T08:20:22;97883.00;;;18.50
15062;BMP180;7630;50.306;8.566;2022-10-16T08:24:24;97881.00;;;17.80
15062;BMP180;7630;50.306;8.566;2022-10-16T08:28:26;97894.00;;;18.60
15062;BMP180;7630;50.306;8.566;2022-10-16T08:32:27;97892.00;;;18.90
15062;BMP180;7630;50.306;8.566;2022-10-16T08:36:28;97899.00;;;19.40
15062;BMP180;7630;50.306;8.566;2022-10-16T08:40:32;97910.00;;;19.60
15062;BMP180;7630;50.306;8.566;2022-10-16T08:48:58;97926.00;;;19.20
15062;BMP180;7630;50.306;8.566;2022-10-16T08:53:01;97932.00;;;18.80
15062;BMP180;7630;50.306;8.566;2022-10-16T08:57:11;97933.00;;;18.10
15062;BMP180;7630;50.306;8.566;2022-10-16T09:01:15;97935.00;;;18.10
15062;BMP180;7630;50.306;8.566;2022-10-16T09:14:32;97937.00;;;20.00
15062;BMP180;7630;50.306;8.566;2022-10-16T09:23:19;97961.00;;;19.80
15062;BMP180;7630;50.306;8.566;2022-10-16T09:27:21;97957.00;;;19.80
15062;BMP180;7630;50.306;8.566;2022-10-16T09:31:23;97962.00;;;19.10
15062;BMP180;7630;50.306;8.566;2022-10-16T09:39:47;97973.00;;;18.80
15062;BMP180;7630;50.306;8.566;2022-10-16T09:43:54;97979.00;;;20.10
15062;BMP180;7630;50.306;8.566;2022-10-16T09:47:56;97980.00;;;20.40
15062;BMP180;7630;50.306;8.566;2022-10-16T09:52:09;97983.00;;;20.60
15062;BMP180;7630;50.306;8.566;2022-10-16T09:56:10;97990.00;;;20.10
15062;BMP180;7630;50.306;8.566;2022-10-16T10:00:16;97998.00;;;19.00
15062;BMP180;7630;50.306;8.566;2022-10-16T10:04:19;97992.00;;;18.50
15062;BMP180;7630;50.306;8.566;2022-10-16T10:08:21;97999.00;;;18.30
15062;BMP180;7630;50.306;8.566;2022-10-16T10:12:27;97994.00;;;19.50
15062;BMP180;7630;50.306;8.566;2022-10-16T10:16:30;97994.00;;;19.70
15062;BMP180;7630;50.306;8.566;2022-10-16T10:20:34;97987.00;;;19.60
15062;BMP180;7630;50.306;8.566;2022-10-16T10:24:37;97983.00;;;21.20
15062;BMP180;7630;50.306;8.566;2022-10-16T10:46:45;97990.00;;;20.40
15062;BMP180;7630;50.306;8.566;2022-10-16T10:50:39;97978.00;;;20.90
15062;BMP180;7630;50.306;8.566;2022-10-16T10:54:58;97991.00;;;21.40
15062;BMP180;7630;50.306;8.566;2022-10-16T11:03:27;97976.00;;;22.40
15062;BMP180;7630;50.306;8.566;2022-10-16T11:07:34;97969.00;;;22.70
15062;BMP180;7630;50.306;8.566;2022-10-16T11:11:48;97972.00;;;23.70
15062;BMP180;7630;50.306;8.566;2022-10-16T11:15:53;97978.00;;;23.00
15062;BMP180;7630;50.306;8.566;2022-10-16T11:20:14;97971.00;;;22.30
15062;BMP180;7630;50.306;8.566;2022-10-16T11:24:20;97985.00;;;22.80
15062;BMP180;7630;50.306;8.566;2022-10-16T11:28:43;97980.00;;;22.60
15062;BMP180;7630;50.306;8.566;2022-10-16T11:33:41;97975.00;;;22.50
15062;BMP180;7630;50.306;8.566;2022-10-16T11:37:14;97969.00;;;22.50
15062;BMP180;7630;50.306;8.566;2022-10-16T11:45:39;97976.00;;;22.00
15062;BMP180;7630;50.306;8.566;2022-10-16T11:49:40;97978.00;;;22.40
15062;BMP180;7630;50.306;8.566;2022-10-16T11:53:52;97976.00;;;21.60
15062;BMP180;7630;50.306;8.566;2022-10-16T11:58:20;97975.00;;;22.10
15062;BMP180;7630;50.306;8.566;2022-10-16T12:02:33;97978.00;;;22.60
15062;BMP180;7630;50.306;8.566;2022-10-16T12:10:49;97986.00;;;21.50
15062;BMP180;7630;50.306;8.566;2022-10-16T12:15:03;97986.00;;;21.70
15062;BMP180;7630;50.306;8.566;2022-10-16T12:19:15;97984.00;;;21.10
15062;BMP180;7630;50.306;8.566;2022-10-16T12:23:19;97991.00;;;22.00
15062;BMP180;7630;50.306;8.566;2022-10-16T12:31:44;97979.00;;;20.80
15062;BMP180;7630;50.306;8.566;2022-10-16T12:35:49;97982.00;;;20.80
15062;BMP180;7630;50.306;8.566;2022-10-16T12:39:53;97977.00;;;21.70
15062;BMP180;7630;50.306;8.566;2022-10-16T12:43:56;97986.00;;;21.60
15062;BMP180;7630;50.306;8.566;2022-10-16T12:48:00;97973.00;;;21.00
15062;BMP180;7630;50.306;8.566;2022-10-16T12:52:03;98005.00;;;21.00
15062;BMP180;7630;50.306;8.566;2022-10-16T12:56:20;98002.00;;;19.90
15062;BMP180;7630;50.306;8.566;2022-10-16T13:13:23;98024.00;;;20.80
15062;BMP180;7630;50.306;8.566;2022-10-16T13:17:45;98018.00;;;21.40
15062;BMP180;7630;50.306;8.566;2022-10-16T13:26:17;98033.00;;;21.60
15062;BMP180;7630;50.306;8.566;2022-10-16T13:30:31;98022.00;;;21.80
15062;BMP180;7630;50.306;8.566;2022-10-16T13:34:41;98018.00;;;21.80
15062;BMP180;7630;50.306;8.566;2022-10-16T13:38:36;98012.00;;;21.90
15062;BMP180;7630;50.306;8.566;2022-10-16T13:42:37;98021.00;;;21.40
15062;BMP180;7630;50.306;8.566;2022-10-16T13:46:40;98022.00;;;21.50
15062;BMP180;7630;50.306;8.566;2022-10-16T13:50:41;98009.00;;;21.70
15062;BMP180;7630;50.306;8.566;2022-10-16T13:54:42;98021.00;;;21.50
15062;BMP180;7630;50.306;8.566;2022-10-16T13:58:44;98012.00;;;21.90
15062;BMP180;7630;50.306;8.566;2022-10-16T14:02:51;98012.00;;;22.00
15062;BMP180;7630;50.306;8.566;2022-10-16T14:06:53;98017.00;;;22.50
15062;BMP180;7630;50.306;8.566;2022-10-16T14:10:56;98010.00;;;22.40
15062;BMP180;7630;50.306;8.566;2022-10-16T14:14:59;98027.00;;;22.30
15062;BMP180;7630;50.306;8.566;2022-10-16T14:19:03;98026.00;;;22.60
15062;BMP180;7630;50.306;8.566;2022-10-16T14:27:35;98026.00;;;22.30
15062;BMP180;7630;50.306;8.566;2022-10-16T14:31:37;98022.00;;;22.30
15062;BMP180;7630;50.306;8.566;2022-10-16T14:35:39;98016.00;;;22.40
15062;BMP180;7630;50.306;8.566;2022-10-16T14:39:40;98033.00;;;22.50
15062;BMP180;7630;50.306;8.566;2022-10-16T14:43:42;98033.00;;;22.50
15062;BMP180;7630;50.306;8.566;2022-10-16T14:47:52;98042.00;;;22.90
15062;BMP180;7630;50.306;8.566;2022-10-16T14:51:54;98029.00;;;21.80
15062;BMP180;7630;50.306;8.566;2022-10-16T14:55:56;98034.00;;;21.80
15062;BMP180;7630;50.306;8.566;2022-10-16T14:59:59;98032.00;;;21.70
15062;BMP180;7630;50.306;8.566;2022-10-16T15:04:00;98025.00;;;21.30
15062;BMP180;7630;50.306;8.566;2022-10-16T15:08:02;98024.00;;;21.80
15062;BMP180;7630;50.306;8.566;2022-10-16T15:12:06;98037.00;;;21.40
15062;BMP180;7630;50.306;8.566;2022-10-16T15:16:11;98041.00;;;21.60
15062;BMP180;7630;50.306;8.566;2022-10-16T15:20:12;98043.00;;;21.10
15062;BMP180;7630;50.306;8.566;2022-10-16T15:24:14;97986.00;;;20.40
15062;BMP180;7630;50.306;8.566;2022-10-16T15:28:18;98042.00;;;21.10
15062;BMP180;7630;50.306;8.566;2022-10-16T15:32:20;98055.00;;;21.20
15062;BMP180;7630;50.306;8.566;2022-10-16T15:36:28;98065.00;;;21.30
15062;BMP180;7630;50.306;8.566;2022-10-16T15:40:29;98067.00;;;21.50
15062;BMP180;7630;50.306;8.566;2022-10-16T15:44:31;98070.00;;;21.80
15062;BMP180;7630;50.306;8.566;2022-10-16T15:48:32;98024.00;;;22.10
15062;BMP180;7630;50.306;8.566;2022-10-16T15:52:34;98080.00;;;22.00
15062;BMP180;7630;50.306;8.566;2022-10-16T15:56:35;98082.00;;;21.80
15062;BMP180;7630;50.306;8.566;2022-10-16T16:00:37;98084.00;;;21.90
15062;BMP180;7630;50.306;8.566;2022-10-16T16:04:39;98074.00;;;21.70
15062;BMP180;7630;50.306;8.566;2022-10-16T16:08:42;98073.00;;;21.40
15062;BMP180;7630;50.306;8.566;2022-10-16T16:12:46;98073.00;;;21.30
15062;BMP180;7630;50.306;8.566;2022-10-16T16:16:49;98078.00;;;21.70
15062;BMP180;7630;50.306;8.566;2022-10-16T16:20:51;98077.00;;;21.40
15062;BMP180;7630;50.306;8.566;2022-10-16T16:24:52;98078.00;;;21.60
15062;BMP180;7630;50.306;8.566;2022-10-16T16:28:54;98072.00;;;21.90
15062;BMP180;7630;50.306;8.566;2022-10-16T16:32:57;98074.00;;;21.80
15062;BMP180;7630;50.306;8.566;2022-10-16T16:36:58;98080.00;;;21.70
15062;BMP180;7630;50.306;8.566;2022-10-16T16:41:00;98080.00;;;21.40
15062;BMP180;7630;50.306;8.566;2022-10-16T16:45:03;98071.00;;;21.30
15062;BMP180;7630;50.306;8.566;2022-10-16T16:49:05;98072.00;;;20.90
15062;BMP180;7630;50.306;8.566;2022-10-16T16:53:07;98061.00;;;20.50
15062;BMP180;7630;50.306;8.566;2022-10-16T16:57:08;98082.00;;;20.50
15062;BMP180;7630;50.306;8.566;2022-10-16T17:01:11;98084.00;;;20.50
15062;BMP180;7630;50.306;8.566;2022-10-16T17:05:15;98086.00;;;20.60
15062;BMP180;7630;50.306;8.566;2022-10-16T17:09:16;98091.00;;;21.20
15062;BMP180;7630;50.306;8.566;2022-10-16T17:13:19;98100.00;;;21.40
15062;BMP180;7630;50.306;8.566;2022-10-16T17:17:20;98109.00;;;21.40
15062;BMP180;7630;50.306;8.566;2022-10-16T17:21:21;98105.00;;;21.40
15062;BMP180;7630;50.306;8.566;2022-10-16T17:25:23;98110.00;;;21.20
15062;BMP180;7630;50.306;8.566;2022-10-16T17:29:26;98108.00;;;21.00
15062;BMP180;7630;50.306;8.566;2022-10-16T17:33:27;98114.00;;;20.90
15062;BMP180;7630;50.306;8.566;2022-10-16T17:37:28;98116.00;;;19.90
15062;BMP180;7630;50.306;8.566;2022-10-16T17:41:30;98123.00;;;19.50
15062;BMP180;7630;50.306;8.566;2022-10-16T17:45:36;98122.00;;;20.20
15062;BMP180;7630;50.306;8.566;2022-10-16T17:49:39;98125.00;;;19.80
15062;BMP180;7630;50.306;8.566;2022-10-16T17:53:40;98112.00;;;19.30
15062;BMP180;7630;50.306;8.566;2022-10-16T17:57:43;98127.00;;;20.40
15062;BMP180;7630;50.306;8.566;2022-10-16T18:01:45;98119.00;;;21.00
15062;BMP180;7630;50.306;8.566;2022-10-16T18:05:47;98130.00;;;20.60
15062;BMP180;7630;50.306;8.566;2022-10-16T18:09:48;98128.00;;;21.10
15062;BMP180;7630;50.306;8.566;2022-10-16T18:13:52;98134.00;;;19.60
15062;BMP180;7630;50.306;8.566;2022-10-16T18:17:54;98147.00;;;20.70
15062;BMP180;7630;50.306;8.566;2022-10-16T18:21:55;98144.00;;;21.30
15062;BMP180;7630;50.306;8.566;2022-10-16T18:25:56;98146.00;;;20.80
15062;BMP180;7630;50.306;8.566;2022-10-16T18:29:58;98144.00;;;21.30
15062;BMP180;7630;50.306;8.566;2022-10-16T18:34:00;98136.00;;;21.00
15062;BMP180;7630;50.306;8.566;2022-10-16T18:38:01;98147.00;;;20.60
15062;BMP180;7630;50.306;8.566;2022-10-16T18:42:03;98147.00;;;20.90
15062;BMP180;7630;50.306;8.566;2022-10-16T18:46:10;98154.00;;;21.00
15062;BMP180;7630;50.306;8.566;2022-10-16T18:50:11;98158.00;;;20.90
15062;BMP180;7630;50.306;8.566;2022-10-16T18:54:12;98153.00;;;20.00
15062;BMP180;7630;50.306;8.566;2022-10-16T18:58:14;98161.00;;;19.80
15062;BMP180;7630;50.306;8.566;2022-10-16T19:02:15;98154.00;;;20.50
15062;BMP180;7630;50.306;8.566;2022-10-16T19:06:16;98160.00;;;20.90
15062;BMP180;7630;50.306;8.566;2022-10-16T19:10:17;98165.00;;;20.50
15062;BMP180;7630;50.306;8.566;2022-10-16T19:14:18;98156.00;;;20.90
15062;BMP180;7630;50.306;8.566;2022-10-16T19:18:20;98158.00;;;20.80
15062;BMP180;7630;50.306;8.566;2022-10-16T19:22:23;98161.00;;;21.00
15062;BMP180;7630;50.306;8.566;2022-10-16T19:26:32;98167.00;;;20.90
15062;BMP180;7630;50.306;8.566;2022-10-16T19:30:37;98171.00;;;21.00
15062;BMP180;7630;50.306;8.566;2022-10-16T19:34:38;98169.00;;;20.20
15062;BMP180;7630;50.306;8.566;2022-10-16T19:38:39;98178.00;;;20.30
15062;BMP180;7630;50.306;8.566;2022-10-16T19:42:41;98174.00;;;19.50
15062;BMP180;7630;50.306;8.566;2022-10-16T19:46:45;98168.00;;;19.70
15062;BMP180;7630;50.306;8.566;2022-10-16T19:50:47;98173.00;;;19.50
15062;BMP180;7630;50.306;8.566;2022-10-16T19:54:48;98180.00;;;20.10
15062;BMP180;7630;50.306;8.566;2022-10-16T19:58:51;98192.00;;;20.50
15062;BMP180;7630;50.306;8.566;2022-10-16T20:02:53;98194.00;;;20.40
15062;BMP180;7630;50.306;8.566;2022-10-16T20:06:54;98191.00;;;20.70
15062;BMP180;7630;50.306;8.566;2022-10-16T20:10:55;98192.00;;;20.50
15062;BMP180;7630;50.306;8.566;2022-10-16T20:14:56;98197.00;;;20.60
15062;BMP180;7630;50.306;8.566;2022-10-16T20:18:58;98192.00;;;21.00
15062;BMP180;7630;50.306;8.566;2022-10-16T20:22:59;98195.00;;;20.90
15062;BMP180;7630;50.306;8.566;2022-10-16T20:27:00;98191.00;;;20.40
15062;BMP180;7630;50.306;8.566;2022-10-16T20:31:07;98203.00;;;20.30
15062;BMP180;7630;50.306;8.566;2022-10-16T20:35:09;98202.00;;;20.60
15062;BMP180;7630;50.306;8.566;2022-10-16T20:39:10;98201.00;;;20.40
15062;BMP180;7630;50.306;8.566;2022-10-16T20:43:16;98192.00;;;20.70
15062;BMP180;7630;50.306;8.566;2022-10-16T20:47:17;98191.00;;;20.20
15062;BMP180;7630;50.306;8.566;2022-10-16T20:51:27;98200.00;;;20.10
15062;BMP180;7630;50.306;8.566;2022-10-16T20:55:29;98205.00;;;19.70
15062;BMP180;7630;50.306;8.566;2022-10-16T20:59:30;98202.00;;;19.90
15062;BMP180;7630;50.306;8.566;2022-10-16T21:03:32;98210.00;;;19.70
15062;BMP180;7630;50.306;8.566;2022-10-16T21:07:33;98214.00;;;19.80
15062;BMP180;7630;50.306;8.566;2022-10-16T21:11:34;98208.00;;;20.00
15062;BMP180;7630;50.306;8.566;2022-10-16T21:15:36;98203.00;;;19.70
15062;BMP180;7630;50.306;8.566;2022-10-16T21:19:37;98209.00;;;20.20
15062;BMP180;7630;50.306;8.566;2022-10-16T21:23:38;98205.00;;;20.40
15062;BMP180;7630;50.306;8.566;2022-10-16T21:27:39;98204.00;;;20.60
15062;BMP180;7630;50.306;8.566;2022-10-16T21:31:41;98200.00;;;19.70
15062;BMP180;7630;50.306;8.566;2022-10-16T21:35:43;98195.00;;;19.70
15062;BMP180;7630;50.306;8.566;2022-10-16T21:39:44;98195.00;;;20.10
15062;BMP180;7630;50.306;8.566;2022-10-16T21:43:45;98198.00;;;18.90
15062;BMP180;7630;50.306;8.566;2022-10-16T21:47:46;98199.00;;;20.00
15062;BMP180;7630;50.306;8.566;2022-10-16T21:51:49;98207.00;;;19.90
15062;BMP180;7630;50.306;8.566;2022-10-16T21:55:50;98204.00;;;19.70
15062;BMP180;7630;50.306;8.566;2022-10-16T22:00:06;98207.00;;;19.90
15062;BMP180;7630;50.306;8.566;2022-10-16T22:03:57;98212.00;;;19.40
15062;BMP180;7630;50.306;8.566;2022-10-16T22:07:59;98203.00;;;19.40
15062;BMP180;7630;50.306;8.566;2022-10-16T22:12:00;98193.00;;;19.70
15062;BMP180;7630;50.306;8.566;2022-10-16T22:16:01;98193.00;;;20.50
15062;BMP180;7630;50.306;8.566;2022-10-16T22:20:03;98188.00;;;20.50
15062;BMP180;7630;50.306;8.566;2022-10-16T22:24:05;98199.00;;;20.20
15062;BMP180;7630;50.306;8.566;2022-10-16T22:28:06;98193.00;;;19.70
15062;BMP180;7630;50.306;8.566;2022-10-16T22:32:08;98201.00;;;20.10
15062;BMP180;7630;50.306;8.566;2022-10-16T22:36:11;98198.00;;;20.00
15062;BMP180;7630;50.306;8.566;2022-10-16T22:40:13;98206.00;;;20.00
15062;BMP180;7630;50.306;8.566;2022-10-16T22:44:14;98214.00;;;19.30
15062;BMP180;7630;50.306;8.566;2022-10-16T22:48:16;98218.00;;;19.50
15062;BMP180;7630;50.306;8.566;2022-10-16T22:52:18;98218.00;;;20.20
15062;BMP180;7630;50.306;8.566;2022-10-16T22:56:20;98224.00;;;20.10
15062;BMP180;7630;50.306;8.566;2022-10-16T23:00:22;98229.00;;;19.90
15062;BMP180;7630;50.306;8.566;2022-10-16T23:04:23;98234.00;;;19.70
15062;BMP180;7630;50.306;8.566;2022-10-16T23:08:24;98235.00;;;19.50
15062;BMP180;7630;50.306;8.566;2022-10-16T23:12:25;98236.00;;;19.40
15062;BMP180;7630;50.306;8.566;2022-10-16T23:16:27;98233.00;;;19.40
15062;BMP180;7630;50.306;8.566;2022-10-16T23:20:27;98234.00;;;19.10
15062;BMP180;7630;50.306;8.566;2022-10-16T23:24:30;98237.00;;;18.90
15062;BMP180;7630;50.306;8.566;2022-10-16T23:28:31;98229.00;;;18.60
15062;BMP180;7630;50.306;8.566;2022-10-16T23:32:33;98228.00;;;18.60
15062;BMP180;7630;50.306;8.566;2022-10-16T23:36:34;98234.00;;;18.50
15062;BMP180;7630;50.306;8.566;2022-10-16T23:40:35;98237.00;;;19.00
15062;BMP180;7630;50.306;8.566;2022-10-16T23:44:36;98236.00;;;19.00
15062;BMP180;7630;50.306;8.566;2022-10-16T23:48:38;98239.00;;;19.00
15062;BMP180;7630;50.306;8.566;2022-10-16T23:52:39;98236.00;;;19.70
15062;BMP180;7630;50.306;8.566;2022-10-16T23:56:40;98133.00;;;19.90
